createdAt,value
2023-03-29T00:00:14.162Z,3.10
2023-03-29T00:03:03.873Z,3.30
2023-03-29T00:05:34.903Z,3.40
2023-03-29T00:08:03.963Z,2.80
2023-03-29T00:10:33.460Z,2.10
2023-03-29T00:13:02.170Z,3.00
2023-03-29T00:15:29.944Z,3.40
2023-03-29T00:17:58.085Z,2.50
2023-03-29T00:20:25.832Z,3.60
2023-03-29T00:22:53.350Z,3.10
2023-03-29T00:25:20.938Z,3.40
2023-03-29T00:27:48.535Z,2.80
2023-03-29T00:30:16.711Z,2.60
2023-03-29T00:32:44.587Z,2.40
2023-03-29T00:35:12.659Z,3.30
2023-03-29T00:37:41.131Z,3.20
2023-03-29T00:40:11.558Z,2.90
2023-03-29T00:42:39.274Z,3.20
2023-03-29T00:45:10.016Z,2.70
2023-03-29T00:47:47.201Z,1.80
2023-03-29T00:50:16.481Z,2.80
2023-03-29T00:52:59.668Z,3.30
2023-03-29T00:55:32.369Z,3.30
2023-03-29T00:58:01.122Z,3.20
2023-03-29T01:00:33.377Z,2.80
2023-03-29T01:03:05.121Z,2.80
2023-03-29T01:05:37.958Z,2.70
2023-03-29T01:08:11.357Z,3.80
2023-03-29T01:10:43.796Z,3.80
2023-03-29T01:13:17.605Z,2.90
2023-03-29T01:15:46.760Z,2.80
2023-03-29T01:18:14.509Z,2.40
2023-03-29T01:20:44.895Z,3.00
2023-03-29T01:23:45.698Z,4.00
2023-03-29T01:26:45.114Z,3.70
2023-03-29T01:29:20.882Z,4.70
2023-03-29T01:31:58.693Z,3.00
2023-03-29T01:34:42.157Z,3.20
2023-03-29T01:37:41.200Z,2.70
2023-03-29T01:40:10.662Z,2.70
2023-03-29T01:42:54.382Z,2.90
2023-03-29T01:45:44.494Z,2.20
2023-03-29T01:48:28.028Z,2.80
2023-03-29T01:51:07.247Z,3.00
2023-03-29T01:53:45.457Z,2.60
2023-03-29T01:56:23.541Z,3.50
2023-03-29T01:58:58.055Z,3.50
2023-03-29T02:01:30.041Z,4.30
2023-03-29T02:04:03.510Z,4.10
2023-03-29T02:06:34.056Z,3.10
2023-03-29T02:09:02.554Z,4.30
2023-03-29T02:11:30.188Z,4.30
2023-03-29T02:13:57.903Z,3.10
2023-03-29T02:16:25.445Z,3.10
2023-03-29T02:18:56.188Z,3.10
2023-03-29T02:21:32.534Z,4.80
2023-03-29T02:24:06.450Z,4.00
2023-03-29T02:26:34.088Z,4.40
2023-03-29T02:29:01.906Z,3.50
2023-03-29T02:31:55.217Z,3.80
2023-03-29T02:34:32.781Z,3.70
2023-03-29T02:37:06.590Z,3.20
2023-03-29T02:39:35.759Z,3.70
2023-03-29T02:42:05.177Z,2.90
2023-03-29T02:44:37.792Z,3.70
2023-03-29T02:47:15.958Z,2.70
2023-03-29T02:49:44.026Z,2.80
2023-03-29T02:52:16.778Z,3.50
2023-03-29T02:54:46.501Z,2.30
2023-03-29T02:57:14.196Z,2.60
2023-03-29T02:59:44.082Z,2.70
2023-03-29T03:02:12.258Z,3.10
2023-03-29T03:04:39.908Z,3.30
2023-03-29T03:07:07.486Z,5.10
2023-03-29T03:09:36.321Z,8.60
2023-03-29T03:12:04.034Z,7.20
2023-03-29T03:14:31.883Z,3.00
2023-03-29T03:17:00.657Z,2.90
2023-03-29T03:19:29.946Z,2.30
2023-03-29T03:21:57.575Z,2.20
2023-03-29T03:24:25.207Z,2.40
2023-03-29T03:26:53.184Z,3.30
2023-03-29T03:29:20.794Z,4.60
2023-03-29T03:31:48.916Z,4.90
2023-03-29T03:34:17.377Z,4.60
2023-03-29T03:36:47.153Z,4.40
2023-03-29T03:39:14.677Z,4.80
2023-03-29T03:41:42.258Z,3.60
2023-03-29T03:44:09.835Z,4.10
2023-03-29T03:46:38.097Z,10.50
2023-03-29T03:49:05.650Z,7.10
2023-03-29T03:51:33.230Z,5.30
2023-03-29T03:54:01.033Z,12.00
2023-03-29T03:56:29.817Z,11.20
2023-03-29T03:58:57.391Z,14.80
2023-03-29T04:01:27.122Z,11.00
2023-03-29T04:03:55.160Z,7.50
2023-03-29T04:06:22.728Z,15.70
2023-03-29T04:08:50.519Z,13.60
2023-03-29T04:11:18.058Z,7.30
2023-03-29T04:13:46.199Z,5.80
2023-03-29T04:16:13.770Z,11.70
2023-03-29T04:18:41.531Z,20.10
2023-03-29T04:21:09.154Z,9.70
2023-03-29T04:23:36.657Z,7.10
2023-03-29T04:26:04.566Z,4.60
2023-03-29T04:28:32.905Z,5.40
2023-03-29T04:31:01.747Z,8.80
2023-03-29T04:33:29.581Z,8.30
2023-03-29T04:35:57.498Z,11.00
2023-03-29T04:38:26.519Z,13.40
2023-03-29T04:40:55.604Z,24.40
2023-03-29T04:43:23.594Z,30.00
2023-03-29T04:45:51.358Z,26.40
2023-03-29T04:48:18.984Z,10.00
2023-03-29T04:50:47.431Z,8.60
2023-03-29T04:53:14.932Z,10.80
2023-03-29T04:55:42.626Z,11.00
2023-03-29T04:58:10.148Z,11.10
2023-03-29T05:00:37.899Z,8.40
2023-03-29T05:03:06.831Z,9.30
2023-03-29T05:05:35.359Z,11.90
2023-03-29T05:08:03.487Z,30.70
2023-03-29T05:10:31.253Z,22.40
2023-03-29T05:12:58.756Z,40.00
2023-03-29T05:15:26.515Z,38.50
2023-03-29T05:17:54.314Z,86.60
2023-03-29T05:20:22.185Z,72.70
2023-03-29T05:22:49.690Z,71.40
2023-03-29T05:25:18.793Z,39.30
2023-03-29T05:27:46.479Z,68.00
2023-03-29T05:30:18.115Z,20.50
2023-03-29T05:32:48.351Z,47.00
2023-03-29T05:35:16.226Z,12.20
2023-03-29T05:37:43.855Z,20.00
2023-03-29T05:40:14.631Z,14.50
2023-03-29T05:42:42.234Z,46.70
2023-03-29T05:45:11.429Z,18.50
2023-03-29T05:47:38.966Z,21.40
2023-03-29T05:50:09.744Z,7.20
2023-03-29T05:52:38.730Z,7.40
2023-03-29T05:55:07.356Z,11.80
2023-03-29T05:57:37.549Z,13.00
2023-03-29T06:00:25.098Z,13.60
2023-03-29T06:02:53.849Z,9.70
2023-03-29T06:05:21.527Z,13.60
2023-03-29T06:07:50.029Z,8.40
2023-03-29T06:10:19.673Z,5.90
2023-03-29T06:12:49.319Z,6.30
2023-03-29T06:15:17.657Z,7.60
2023-03-29T06:17:46.053Z,9.90
2023-03-29T06:20:14.769Z,8.20
2023-03-29T06:22:42.431Z,6.30
2023-03-29T06:25:15.177Z,5.30
2023-03-29T06:27:42.924Z,5.30
2023-03-29T06:30:12.257Z,5.60
2023-03-29T06:32:40.183Z,6.20
2023-03-29T06:35:09.117Z,6.80
2023-03-29T06:37:40.271Z,8.80
2023-03-29T06:40:09.989Z,9.40
2023-03-29T06:42:37.746Z,14.70
2023-03-29T06:45:06.411Z,11.20
2023-03-29T06:47:34.114Z,4.70
2023-03-29T06:50:01.768Z,12.10
2023-03-29T06:52:29.405Z,8.60
2023-03-29T06:54:57.343Z,4.90
2023-03-29T06:57:25.374Z,6.20
2023-03-29T06:59:54.116Z,9.80
2023-03-29T07:02:22.624Z,7.60
2023-03-29T07:04:50.454Z,21.90
2023-03-29T07:07:21.989Z,8.60
2023-03-29T07:09:53.950Z,4.30
2023-03-29T07:12:22.986Z,4.60
2023-03-29T07:14:50.625Z,6.10
2023-03-29T07:17:23.010Z,6.30
2023-03-29T07:19:51.431Z,4.10
2023-03-29T07:22:19.690Z,5.10
2023-03-29T07:24:49.327Z,3.70
2023-03-29T07:27:18.085Z,3.40
2023-03-29T07:29:46.621Z,3.40
2023-03-29T07:32:14.316Z,4.30
2023-03-29T07:34:42.414Z,5.60
2023-03-29T07:37:13.292Z,2.90
2023-03-29T07:39:44.794Z,6.20
2023-03-29T07:42:12.708Z,9.60
2023-03-29T07:44:42.440Z,6.60
2023-03-29T07:47:13.782Z,5.70
2023-03-29T07:49:42.428Z,5.10
2023-03-29T07:52:10.019Z,8.30
2023-03-29T07:54:38.537Z,5.70
2023-03-29T07:57:06.778Z,8.20
2023-03-29T07:59:34.277Z,5.50
2023-03-29T08:02:01.777Z,7.60
2023-03-29T08:04:29.627Z,4.80
2023-03-29T08:06:57.493Z,3.40
2023-03-29T08:09:25.855Z,5.90
2023-03-29T08:11:53.493Z,5.00
2023-03-29T08:14:23.715Z,4.60
2023-03-29T08:16:52.581Z,7.30
2023-03-29T08:19:20.338Z,3.00
2023-03-29T08:21:48.092Z,8.80
2023-03-29T08:24:15.980Z,4.20
2023-03-29T08:26:43.533Z,5.00
2023-03-29T08:29:11.444Z,10.30
2023-03-29T08:31:38.972Z,11.20
2023-03-29T08:34:06.988Z,5.50
2023-03-29T08:36:34.794Z,6.10
2023-03-29T08:39:03.354Z,3.00
2023-03-29T08:42:05.630Z,2.60
2023-03-29T08:45:03.711Z,3.00
2023-03-29T08:48:13.577Z,9.10
2023-03-29T08:50:50.339Z,10.20
2023-03-29T08:53:45.184Z,6.00
2023-03-29T08:56:18.554Z,3.90
2023-03-29T08:58:48.110Z,3.10
2023-03-29T09:01:16.461Z,5.70
2023-03-29T09:03:50.528Z,2.10
2023-03-29T09:06:24.264Z,2.50
2023-03-29T09:08:53.481Z,2.90
2023-03-29T09:11:30.197Z,5.00
2023-03-29T09:14:25.210Z,4.60
2023-03-29T09:17:10.022Z,7.60
2023-03-29T09:20:12.373Z,7.00
2023-03-29T09:23:13.922Z,10.90
2023-03-29T09:25:54.051Z,7.70
2023-03-29T09:28:31.214Z,6.60
2023-03-29T09:31:14.577Z,6.30
2023-03-29T09:33:49.117Z,4.10
2023-03-29T09:36:24.761Z,6.00
2023-03-29T09:38:54.455Z,5.70
2023-03-29T09:41:36.462Z,3.30
2023-03-29T09:46:55.896Z,1.70
2023-03-29T09:49:29.084Z,2.10
2023-03-29T09:52:04.829Z,4.50
2023-03-29T09:54:32.762Z,4.20
2023-03-29T09:57:01.109Z,2.20
2023-03-29T09:59:29.097Z,3.50
2023-03-29T10:02:07.769Z,4.70
2023-03-29T10:04:36.894Z,2.20
2023-03-29T10:07:07.920Z,1.90
2023-03-29T10:09:35.871Z,2.20
2023-03-29T10:12:08.049Z,2.20
2023-03-29T10:14:53.991Z,3.00
2023-03-29T10:17:26.102Z,2.60
2023-03-29T10:20:03.954Z,1.90
2023-03-29T10:22:38.384Z,3.50
2023-03-29T10:25:15.890Z,3.70
2023-03-29T10:27:47.970Z,3.10
2023-03-29T10:30:24.266Z,7.50
2023-03-29T10:32:56.828Z,2.80
2023-03-29T10:35:39.953Z,4.10
2023-03-29T10:38:14.945Z,1.70
2023-03-29T10:40:51.810Z,3.70
2023-03-29T10:43:29.777Z,2.40
2023-03-29T10:46:19.728Z,4.50
2023-03-29T10:48:50.531Z,4.80
2023-03-29T10:51:19.893Z,2.50
2023-03-29T10:53:47.586Z,3.40
2023-03-29T10:56:47.042Z,4.70
2023-03-29T10:59:32.680Z,2.40
2023-03-29T11:02:24.587Z,5.40
2023-03-29T11:05:24.945Z,3.80
2023-03-29T11:08:08.694Z,2.40
2023-03-29T11:10:46.064Z,5.80
2023-03-29T11:13:46.439Z,3.20
2023-03-29T11:16:39.425Z,3.10
2023-03-29T11:19:38.858Z,2.90
2023-03-29T11:22:26.621Z,4.00
2023-03-29T11:25:12.396Z,4.90
2023-03-29T11:28:05.104Z,2.70
2023-03-29T11:30:48.776Z,2.60
2023-03-29T11:33:19.408Z,5.70
2023-03-29T11:36:25.875Z,4.70
2023-03-29T11:38:59.346Z,3.00
2023-03-29T11:41:32.071Z,3.00
2023-03-29T11:44:09.258Z,2.80
2023-03-29T11:46:46.873Z,3.40
2023-03-29T11:49:41.962Z,3.30
2023-03-29T11:52:33.681Z,3.00
2023-03-29T11:55:19.195Z,4.20
2023-03-29T11:58:04.786Z,3.60
2023-03-29T12:00:41.073Z,5.40
2023-03-29T12:03:32.448Z,5.30
2023-03-29T12:06:25.462Z,5.90
2023-03-29T12:09:02.686Z,3.20
2023-03-29T12:11:49.070Z,3.10
2023-03-29T12:14:39.261Z,3.70
2023-03-29T12:17:15.091Z,3.50
2023-03-29T12:19:54.540Z,3.70
2023-03-29T12:22:22.612Z,3.60
2023-03-29T12:24:54.717Z,3.80
2023-03-29T12:27:27.089Z,2.90
2023-03-29T12:30:27.185Z,4.20
2023-03-29T12:33:03.975Z,3.20
2023-03-29T12:35:40.606Z,2.40
2023-03-29T12:38:31.276Z,3.30
2023-03-29T12:41:25.410Z,3.20
2023-03-29T12:43:53.626Z,3.30
2023-03-29T12:46:27.054Z,3.70
2023-03-29T12:48:58.173Z,7.90
2023-03-29T12:51:35.997Z,5.80
2023-03-29T12:54:13.918Z,21.70
2023-03-29T12:56:58.610Z,12.10
2023-03-29T12:59:47.830Z,18.40
2023-03-29T13:02:15.496Z,4.00
2023-03-29T13:04:43.646Z,7.90
2023-03-29T13:07:28.464Z,2.40
2023-03-29T13:09:57.958Z,2.90
2023-03-29T13:12:45.789Z,14.30
2023-03-29T13:15:19.472Z,4.20
2023-03-29T13:18:16.134Z,3.30
2023-03-29T13:20:46.760Z,3.80
2023-03-29T13:23:27.388Z,24.20
2023-03-29T13:26:27.284Z,8.00
2023-03-29T13:29:20.013Z,4.70
2023-03-29T13:32:01.741Z,6.60
2023-03-29T13:34:53.675Z,12.10
2023-03-29T13:37:24.567Z,42.30
2023-03-29T13:39:54.965Z,107.40
2023-03-29T13:42:40.992Z,18.70
2023-03-29T13:45:30.010Z,17.10
2023-03-29T13:48:20.566Z,7.60
2023-03-29T13:51:18.693Z,29.20
2023-03-29T13:53:53.129Z,10.70
2023-03-29T13:56:30.934Z,8.80
2023-03-29T13:59:18.831Z,4.30
2023-03-29T14:01:53.468Z,6.70
2023-03-29T14:04:25.761Z,5.90
2023-03-29T14:06:57.467Z,3.90
2023-03-29T14:09:30.321Z,2.90
2023-03-29T14:12:01.713Z,4.20
2023-03-29T14:14:32.754Z,4.10
2023-03-29T14:17:01.514Z,4.50
2023-03-29T14:19:39.036Z,5.30
2023-03-29T14:22:18.838Z,3.50
2023-03-29T14:24:58.814Z,6.80
2023-03-29T14:27:32.267Z,17.80
2023-03-29T14:30:00.708Z,22.40
2023-03-29T14:32:32.251Z,17.80
2023-03-29T14:35:01.051Z,14.80
2023-03-29T14:37:29.774Z,8.10
2023-03-29T14:39:59.500Z,9.50
2023-03-29T14:42:29.217Z,16.60
2023-03-29T14:45:04.507Z,4.40
2023-03-29T14:47:34.686Z,5.70
2023-03-29T14:50:04.708Z,5.20
2023-03-29T14:52:33.509Z,5.60
2023-03-29T14:55:04.022Z,13.40
2023-03-29T14:57:38.259Z,16.90
2023-03-29T15:00:22.715Z,5.80
2023-03-29T15:03:01.742Z,14.20
2023-03-29T15:05:38.156Z,7.40
2023-03-29T15:08:11.868Z,4.30
2023-03-29T15:10:42.949Z,8.60
2023-03-29T15:13:20.021Z,5.80
2023-03-29T15:15:52.431Z,6.70
2023-03-29T15:18:25.242Z,8.40
2023-03-29T15:20:53.010Z,11.20
2023-03-29T15:23:23.791Z,8.00
2023-03-29T15:25:58.792Z,12.60
2023-03-29T15:28:31.173Z,6.40
2023-03-29T15:31:07.962Z,6.60
2023-03-29T15:33:39.371Z,8.90
2023-03-29T15:36:20.276Z,14.00
2023-03-29T15:38:49.729Z,18.90
2023-03-29T15:41:17.272Z,12.80
2023-03-29T15:43:44.781Z,18.70
2023-03-29T15:46:13.876Z,12.00
2023-03-29T15:48:42.173Z,19.40
2023-03-29T15:51:13.396Z,9.10
2023-03-29T15:53:41.441Z,11.70
2023-03-29T15:56:13.255Z,12.20
2023-03-29T15:58:41.055Z,19.10
2023-03-29T16:01:23.665Z,57.10
2023-03-29T16:03:51.884Z,20.90
2023-03-29T16:06:22.018Z,41.70
2023-03-29T16:08:49.541Z,43.50
2023-03-29T16:11:17.372Z,16.20
2023-03-29T16:13:45.123Z,27.10
2023-03-29T16:16:12.770Z,26.90
2023-03-29T16:18:41.215Z,19.40
2023-03-29T16:21:14.322Z,21.30
2023-03-29T16:23:42.932Z,10.00
2023-03-29T16:26:12.733Z,16.40
2023-03-29T16:28:41.241Z,20.60
2023-03-29T16:31:13.273Z,25.60
2023-03-29T16:33:41.325Z,27.00
2023-03-29T16:36:10.009Z,24.40
2023-03-29T16:38:38.342Z,19.50
2023-03-29T16:41:07.110Z,9.20
2023-03-29T16:43:35.298Z,9.60
2023-03-29T16:46:03.875Z,12.40
2023-03-29T16:48:32.002Z,11.60
2023-03-29T16:50:59.717Z,7.60
2023-03-29T16:53:28.398Z,8.50
2023-03-29T16:55:57.330Z,8.00
2023-03-29T16:58:24.894Z,9.00
2023-03-29T17:00:53.551Z,14.50
2023-03-29T17:03:21.173Z,9.90
2023-03-29T17:05:50.610Z,8.80
2023-03-29T17:08:18.805Z,6.80
2023-03-29T17:10:47.254Z,5.00
2023-03-29T17:13:14.776Z,4.30
2023-03-29T17:15:42.447Z,4.50
2023-03-29T17:18:10.091Z,5.30
2023-03-29T17:20:40.875Z,6.00
2023-03-29T17:23:09.731Z,6.50
2023-03-29T17:25:37.535Z,7.50
2023-03-29T17:28:05.018Z,6.70
2023-03-29T17:30:35.022Z,5.80
2023-03-29T17:33:03.961Z,24.50
2023-03-29T17:35:32.057Z,7.40
2023-03-29T17:38:00.455Z,8.50
2023-03-29T17:40:28.149Z,16.40
2023-03-29T17:42:56.136Z,5.70
2023-03-29T17:45:24.153Z,7.60
2023-03-29T17:47:51.840Z,5.00
2023-03-29T17:50:19.623Z,7.00
2023-03-29T17:52:47.749Z,5.90
2023-03-29T17:55:15.646Z,11.50
2023-03-29T17:57:43.818Z,11.10
2023-03-29T18:00:13.892Z,8.00
2023-03-29T18:02:41.933Z,6.70
2023-03-29T18:05:12.256Z,4.90
2023-03-29T18:07:40.553Z,4.70
2023-03-29T18:10:08.465Z,5.20
2023-03-29T18:12:36.939Z,9.10
2023-03-29T18:15:08.972Z,12.40
2023-03-29T18:17:37.156Z,10.60
2023-03-29T18:20:11.090Z,7.00
2023-03-29T18:22:42.074Z,6.10
2023-03-29T18:25:11.257Z,6.20
2023-03-29T18:27:39.720Z,5.70
2023-03-29T18:30:08.766Z,8.40
2023-03-29T18:32:36.898Z,10.70
2023-03-29T18:35:07.257Z,8.50
2023-03-29T18:37:34.827Z,8.60
2023-03-29T18:40:02.414Z,8.50
2023-03-29T18:42:30.914Z,6.50
2023-03-29T18:44:58.720Z,7.10
2023-03-29T18:47:27.069Z,11.30
2023-03-29T18:49:54.755Z,6.40
2023-03-29T18:52:23.404Z,6.90
2023-03-29T18:54:51.396Z,6.20
2023-03-29T18:57:19.457Z,7.50
2023-03-29T18:59:47.362Z,5.20
2023-03-29T19:02:15.611Z,5.40
2023-03-29T19:04:43.402Z,6.80
2023-03-29T19:07:10.991Z,6.40
2023-03-29T19:09:38.849Z,5.30
2023-03-29T19:12:06.650Z,5.70
2023-03-29T19:14:34.202Z,5.40
2023-03-29T19:17:01.754Z,8.50
2023-03-29T19:19:29.490Z,6.60
2023-03-29T19:22:00.277Z,5.90
2023-03-29T19:24:28.374Z,6.00
2023-03-29T19:26:56.473Z,6.00
2023-03-29T19:29:24.469Z,6.80
2023-03-29T19:31:55.014Z,7.10
2023-03-29T19:34:24.308Z,7.60
2023-03-29T19:36:53.785Z,8.10
2023-03-29T19:39:22.296Z,6.90
2023-03-29T19:41:49.893Z,5.70
2023-03-29T19:44:17.440Z,5.70
2023-03-29T19:46:44.960Z,7.00
2023-03-29T19:49:13.665Z,6.30
2023-03-29T19:51:43.070Z,6.40
2023-03-29T19:54:13.193Z,7.10
2023-03-29T19:56:42.503Z,5.90
2023-03-29T19:59:11.010Z,5.60
2023-03-29T20:01:42.667Z,6.60
2023-03-29T20:04:11.803Z,6.40
2023-03-29T20:06:40.224Z,6.70
2023-03-29T20:09:08.767Z,5.60
2023-03-29T20:11:36.422Z,7.60
2023-03-29T20:14:04.912Z,9.00
2023-03-29T20:16:35.871Z,7.10
2023-03-29T20:19:08.153Z,6.80
2023-03-29T20:21:38.710Z,6.70
2023-03-29T20:24:08.545Z,6.00
2023-03-29T20:26:37.019Z,7.10
2023-03-29T20:29:04.619Z,7.00
2023-03-29T20:31:32.323Z,7.30
2023-03-29T20:34:00.869Z,8.00
2023-03-29T20:36:30.349Z,7.30
2023-03-29T20:38:59.228Z,6.90
2023-03-29T20:41:27.081Z,7.10
2023-03-29T20:43:58.430Z,6.00
2023-03-29T20:46:33.372Z,7.20
2023-03-29T20:49:04.371Z,7.10
2023-03-29T20:51:32.218Z,8.40
2023-03-29T20:54:04.834Z,7.20
2023-03-29T20:56:38.541Z,7.70
2023-03-29T20:59:10.397Z,6.50
2023-03-29T21:01:41.294Z,7.90
2023-03-29T21:04:10.546Z,6.90
2023-03-29T21:06:41.367Z,6.40
2023-03-29T21:09:08.883Z,6.80
2023-03-29T21:11:36.439Z,6.50
2023-03-29T21:14:04.410Z,6.90
2023-03-29T21:16:31.994Z,7.30
2023-03-29T21:18:59.691Z,7.30
2023-03-29T21:21:29.433Z,7.70
2023-03-29T21:23:57.040Z,7.30
2023-03-29T21:26:24.584Z,6.70
2023-03-29T21:28:52.141Z,7.20
2023-03-29T21:31:19.782Z,8.60
2023-03-29T21:33:47.381Z,7.80
2023-03-29T21:36:15.266Z,7.60
2023-03-29T21:38:42.821Z,7.70
2023-03-29T21:41:12.183Z,7.50
2023-03-29T21:43:40.286Z,8.10
2023-03-29T21:46:07.994Z,6.80
2023-03-29T21:48:36.020Z,6.90
2023-03-29T21:51:04.146Z,7.20
2023-03-29T21:53:31.885Z,7.10
2023-03-29T21:55:59.677Z,7.80
2023-03-29T21:58:27.293Z,7.10
2023-03-29T22:00:56.888Z,8.80
2023-03-29T22:03:25.497Z,8.80
2023-03-29T22:06:02.585Z,7.30
2023-03-29T22:08:30.788Z,8.50
2023-03-29T22:11:08.282Z,9.40
2023-03-29T22:13:36.641Z,10.00
2023-03-29T22:16:05.054Z,9.90
2023-03-29T22:18:43.754Z,9.60
2023-03-29T22:21:15.207Z,7.40
2023-03-29T22:23:45.801Z,8.30
2023-03-29T22:26:15.647Z,9.00
2023-03-29T22:28:43.468Z,8.50
2023-03-29T22:31:14.453Z,7.20
2023-03-29T22:33:42.501Z,7.20
2023-03-29T22:36:17.314Z,6.00
2023-03-29T22:38:46.731Z,8.20
2023-03-29T22:41:15.777Z,7.20
2023-03-29T22:43:43.694Z,6.90
2023-03-29T22:46:13.834Z,9.20
2023-03-29T22:48:41.639Z,7.40
2023-03-29T22:51:09.130Z,8.50
2023-03-29T22:53:36.934Z,7.70
2023-03-29T22:56:06.928Z,7.00
2023-03-29T22:58:36.208Z,6.90
2023-03-29T23:01:05.705Z,7.50
2023-03-29T23:03:34.209Z,10.90
2023-03-29T23:06:04.608Z,10.70
2023-03-29T23:08:34.211Z,7.90
2023-03-29T23:11:02.448Z,8.10
2023-03-29T23:13:30.662Z,7.90
2023-03-29T23:16:00.452Z,7.20
2023-03-29T23:18:30.580Z,7.70
2023-03-29T23:20:59.079Z,6.30
2023-03-29T23:23:28.425Z,6.90
2023-03-29T23:25:57.793Z,7.60
2023-03-29T23:28:30.109Z,7.00
2023-03-29T23:31:00.518Z,9.90
2023-03-29T23:33:33.107Z,20.00
2023-03-29T23:36:04.303Z,16.30
2023-03-29T23:38:34.136Z,9.10
2023-03-29T23:41:06.802Z,8.80
2023-03-29T23:43:40.247Z,8.90
2023-03-29T23:46:13.266Z,7.60
2023-03-29T23:48:45.690Z,10.40
2023-03-29T23:51:13.560Z,8.80
2023-03-29T23:53:41.445Z,8.60
2023-03-29T23:56:09.468Z,8.50
2023-03-29T23:58:38.004Z,8.60
